Time;durP1;ratioP1;P1;durP2;ratioP2;P2;SDS_P1;SDS_P2;PMS_P1;PMS_P2;Temp;Humidity;BMP_temperature;BMP_pressure;BME280_temperature;BME280_humidity;BME280_pressure;Samples;Min_cycle;Max_cycle;Signal;HPM_P1;HPM_P2
2023/06/29 00:02:54;;;;;;;4.68;4.22;;;;;;;20.62;75.36;101575.66;6066532;28;20232;-70
2023/06/29 00:06:15;;;;;;;6.15;4.93;;;;;;;20.71;74.93;101579.19;6074218;29;20221;-70
2023/06/29 00:09:37;;;;;;;7.18;5.57;;;;;;;20.41;75.41;101577.38;6066075;29;20244;-70
2023/06/29 00:12:58;;;;;;;6.13;5.35;;;;;;;20.41;76.06;101583.72;6077658;29;20641;-69
2023/06/29 00:16:19;;;;;;;6.55;5.65;;;;;;;20.41;76.08;101575.50;6085076;28;20312;-70
2023/06/29 00:19:40;;;;;;;7.35;6.20;;;;;;;20.47;76.06;101565.69;6078679;29;20233;-70
2023/06/29 00:23:01;;;;;;;9.52;8.10;;;;;;;20.63;75.70;101569.13;6081454;28;20232;-69
2023/06/29 00:26:23;;;;;;;9.65;7.25;;;;;;;20.57;75.83;101566.28;6072649;28;20236;-70
2023/06/29 00:29:44;;;;;;;6.88;6.00;;;;;;;20.58;75.76;101562.50;6081648;28;20240;-69
2023/06/29 00:33:04;;;;;;;7.45;6.85;;;;;;;20.78;75.61;101562.88;6068216;29;20241;-70
2023/06/29 00:36:26;;;;;;;7.03;6.40;;;;;;;20.73;75.48;101557.06;6064835;28;20232;-69
2023/06/29 00:39:48;;;;;;;7.13;6.53;;;;;;;20.86;74.85;101554.56;6071156;28;20315;-70
2023/06/29 00:43:10;;;;;;;8.40;7.60;;;;;;;20.77;75.12;101555.66;6071031;29;20236;-70
2023/06/29 00:46:31;;;;;;;9.98;9.02;;;;;;;20.82;74.89;101550.50;6071763;28;20627;-69
2023/06/29 00:49:52;;;;;;;8.63;7.82;;;;;;;20.70;75.27;101542.72;6078364;28;20232;-70
2023/06/29 00:53:13;;;;;;;10.57;9.07;;;;;;;20.58;75.38;101538.72;6089943;29;20239;-69
2023/06/29 00:56:35;;;;;;;8.73;7.85;;;;;;;20.77;75.51;101536.47;6072513;28;20232;-69
2023/06/29 01:00:00;;;;;;;9.48;8.57;;;;;;;20.85;75.17;101528.16;6092423;28;20638;-70
2023/06/29 01:03:21;;;;;;;10.23;9.23;;;;;;;20.78;75.16;101530.81;6057256;29;20252;-70
2023/06/29 01:06:46;;;;;;;11.15;10.13;;;;;;;20.31;76.03;101527.47;6070498;28;20245;-70
2023/06/29 01:10:10;;;;;;;11.88;10.68;;;;;;;20.37;76.52;101526.72;6070112;28;20256;-69
2023/06/29 01:13:33;;;;;;;11.27;10.27;;;;;;;20.46;76.90;101526.47;6061139;29;20327;-70
2023/06/29 01:16:57;;;;;;;11.45;10.35;;;;;;;20.50;76.75;101516.88;6075986;28;20497;-69
2023/06/29 01:20:20;;;;;;;12.75;11.65;;;;;;;20.31;76.64;101527.47;6079222;29;20232;-69
2023/06/29 01:23:42;;;;;;;13.70;12.40;;;;;;;20.31;77.25;101517.38;6076228;28;20240;-69
2023/06/29 01:27:06;;;;;;;13.52;12.07;;;;;;;20.23;77.83;101513.84;6073162;28;20654;-70
2023/06/29 01:30:28;;;;;;;10.90;9.90;;;;;;;20.30;77.89;101512.91;6079715;28;20596;-70
2023/06/29 01:33:50;;;;;;;12.85;11.20;;;;;;;20.33;77.97;101514.44;6067828;28;20239;-69
2023/06/29 01:37:17;;;;;;;12.50;11.20;;;;;;;20.50;77.53;101514.13;6072021;28;20306;-69
2023/06/29 01:40:44;;;;;;;12.63;11.38;;;;;;;20.51;77.32;101512.22;6083093;28;20228;-69
2023/06/29 01:44:10;;;;;;;13.30;11.93;;;;;;;20.69;77.15;101519.06;6060087;28;20233;-70
2023/06/29 01:47:34;;;;;;;12.55;11.35;;;;;;;20.67;76.89;101512.91;6081336;28;20315;-69
2023/06/29 01:50:56;;;;;;;12.25;11.05;;;;;;;20.64;77.06;101513.31;6075201;28;20232;-69
2023/06/29 01:54:17;;;;;;;12.60;11.25;;;;;;;20.60;77.06;101517.47;6083115;28;20240;-68
2023/06/29 01:57:38;;;;;;;14.70;13.25;;;;;;;20.58;77.45;101510.47;6073923;28;20231;-70
2023/06/29 02:01:01;;;;;;;12.48;11.30;;;;;;;20.65;77.42;101504.03;6077034;29;20233;-68
2023/06/29 02:04:22;;;;;;;12.48;11.25;;;;;;;20.66;77.22;101508.50;6064839;29;20229;-70
2023/06/29 02:07:42;;;;;;;13.70;12.40;;;;;;;20.32;77.61;101505.38;6057669;29;20244;-70
2023/06/29 02:11:03;;;;;;;12.75;11.52;;;;;;;20.53;78.01;101508.25;6076965;28;20602;-70
2023/06/29 02:14:24;;;;;;;12.75;11.55;;;;;;;20.58;78.20;101502.22;6060168;28;20240;-69
2023/06/29 02:17:46;;;;;;;13.82;12.57;;;;;;;20.35;78.75;101499.53;6063768;28;20341;-69
2023/06/29 02:21:08;;;;;;;15.05;13.55;;;;;;;20.55;78.18;101497.13;6073582;29;20867;-70
2023/06/29 02:24:29;;;;;;;13.43;11.93;;;;;;;20.62;78.18;101493.47;6063793;29;20228;-69
2023/06/29 02:27:50;;;;;;;16.25;14.55;;;;;;;20.48;78.51;101499.78;6064809;28;20616;-70
2023/06/29 02:31:11;;;;;;;15.25;13.70;;;;;;;20.62;78.41;101506.31;6073951;29;20232;-70
2023/06/29 02:34:33;;;;;;;15.00;13.60;;;;;;;20.60;78.15;101502.91;6078425;29;20256;-69
2023/06/29 02:37:56;;;;;;;13.80;12.43;;;;;;;20.59;78.44;101493.81;6077639;29;20228;-70
2023/06/29 02:41:17;;;;;;;12.55;11.38;;;;;;;20.66;78.29;101496.66;6074378;29;20332;-69
2023/06/29 02:44:38;;;;;;;15.73;14.02;;;;;;;20.63;78.57;101499.81;6063863;29;20535;-69
2023/06/29 02:48:00;;;;;;;13.57;12.35;;;;;;;20.41;78.63;101498.78;6086601;28;20240;-68
2023/06/29 02:51:22;;;;;;;16.85;13.05;;;;;;;20.31;79.53;101500.09;6092447;28;20237;-70
2023/06/29 02:54:46;;;;;;;17.73;15.23;;;;;;;20.47;79.19;101503.53;6074810;28;20328;-70
2023/06/29 02:58:12;;;;;;;15.90;13.05;;;;;;;20.36;79.74;101494.91;6073687;29;20280;-70
2023/06/29 03:01:33;;;;;;;15.73;13.65;;;;;;;20.25;80.16;101490.72;6065244;28;20244;-71
2023/06/29 03:04:55;;;;;;;16.83;15.07;;;;;;;20.06;80.57;101491.19;6075393;28;20228;-70
2023/06/29 03:08:17;;;;;;;16.83;15.15;;;;;;;19.79;81.69;101502.66;6074178;28;20239;-69
2023/06/29 03:11:38;;;;;;;17.48;15.70;;;;;;;19.67;82.29;101494.00;6068994;28;20315;-70
2023/06/29 03:14:59;;;;;;;17.58;15.90;;;;;;;19.58;83.08;101489.63;6080058;29;20589;-69
2023/06/29 03:18:19;;;;;;;19.80;17.48;;;;;;;19.66;83.57;101489.56;6086796;28;20235;-70
2023/06/29 03:21:40;;;;;;;16.90;15.20;;;;;;;19.82;83.50;101486.72;6072053;28;20237;-69
2023/06/29 03:25:03;;;;;;;20.33;15.10;;;;;;;19.83;83.33;101487.59;6092834;29;20241;-70
2023/06/29 03:28:24;;;;;;;18.30;16.38;;;;;;;20.13;82.87;101483.91;6082403;28;20236;-68
2023/06/29 03:31:45;;;;;;;17.88;15.65;;;;;;;19.80;82.95;101490.66;6067635;28;20296;-69
2023/06/29 03:35:07;;;;;;;17.10;15.35;;;;;;;19.78;83.29;101484.53;6090960;29;20240;-69
2023/06/29 03:38:28;;;;;;;17.60;15.40;;;;;;;19.75;83.70;101482.16;6059055;28;20252;-69
2023/06/29 03:41:50;;;;;;;16.27;14.65;;;;;;;19.71;83.82;101486.31;6071445;28;20618;-68
2023/06/29 03:45:11;;;;;;;17.50;15.57;;;;;;;19.74;83.81;101480.44;6087957;28;20315;-70
2023/06/29 03:48:32;;;;;;;14.60;13.20;;;;;;;20.01;83.44;101477.19;6066338;28;20611;-69
2023/06/29 03:51:53;;;;;;;17.75;15.85;;;;;;;19.75;83.41;101480.28;6072956;28;20244;-69
2023/06/29 03:55:13;;;;;;;16.60;14.93;;;;;;;19.89;83.65;101484.97;6082392;28;20248;-68
2023/06/29 03:58:36;;;;;;;19.73;16.55;;;;;;;19.65;83.92;101481.56;6068361;28;20599;-70
2023/06/29 04:01:57;;;;;;;19.13;16.65;;;;;;;19.65;84.27;101476.91;6073815;28;20251;-69
2023/06/29 04:05:18;;;;;;;16.15;14.20;;;;;;;19.58;84.52;101469.63;6086821;28;20325;-70
2023/06/29 04:08:39;;;;;;;18.63;16.73;;;;;;;19.60;85.15;101478.50;6080675;28;20333;-68
2023/06/29 04:12:00;;;;;;;21.52;16.08;;;;;;;19.75;84.68;101479.44;6072341;28;20237;-69
2023/06/29 04:15:25;;;;;;;15.98;14.32;;;;;;;19.64;84.77;101474.38;6078210;28;20323;-69
2023/06/29 04:18:46;;;;;;;16.98;15.18;;;;;;;19.62;85.25;101482.75;6083960;28;20545;-69
2023/06/29 04:22:07;;;;;;;22.88;16.40;;;;;;;19.68;85.24;101481.19;6072955;28;20232;-69
2023/06/29 04:25:28;;;;;;;21.98;17.55;;;;;;;19.84;85.21;101476.44;6089923;28;22000;-68
2023/06/29 04:28:49;;;;;;;21.45;18.13;;;;;;;19.95;84.57;101475.19;6080132;29;20228;-70
2023/06/29 04:32:11;;;;;;;18.35;14.98;;;;;;;19.99;84.62;101475.66;6064810;29;20544;-69
2023/06/29 04:35:32;;;;;;;16.83;15.13;;;;;;;19.81;84.74;101473.22;6073168;29;20241;-70
2023/06/29 04:38:53;;;;;;;17.70;16.00;;;;;;;19.95;84.50;101466.97;6085377;28;20566;-69
2023/06/29 04:42:16;;;;;;;17.02;15.32;;;;;;;19.98;84.83;101466.63;6076809;28;20239;-70
2023/06/29 04:45:40;;;;;;;17.25;14.80;;;;;;;20.16;84.26;101460.81;6091642;29;20236;-69
2023/06/29 04:49:05;;;;;;;15.48;14.02;;;;;;;19.91;84.26;101468.38;6071176;29;20620;-69
2023/06/29 04:52:26;;;;;;;18.88;16.83;;;;;;;20.04;84.87;101454.94;6080384;28;20235;-69
2023/06/29 04:55:47;;;;;;;18.08;16.30;;;;;;;20.02;84.75;101459.72;6086198;29;20812;-69
2023/06/29 04:59:08;;;;;;;15.85;14.25;;;;;;;20.23;84.73;101461.81;6079579;28;20228;-69
2023/06/29 05:02:29;;;;;;;18.63;14.75;;;;;;;19.84;84.80;101456.44;6076002;28;20239;-69
2023/06/29 05:05:51;;;;;;;20.77;15.75;;;;;;;19.84;85.41;101442.75;6083191;28;20244;-69
2023/06/29 05:09:12;;;;;;;16.02;14.40;;;;;;;19.78;85.97;101451.69;6081908;29;20244;-70
2023/06/29 05:12:34;;;;;;;17.40;15.18;;;;;;;19.72;86.04;101453.28;6073871;28;20240;-69
2023/06/29 05:15:54;;;;;;;19.70;17.35;;;;;;;19.85;85.98;101453.53;6066481;29;20244;-70
2023/06/29 05:19:15;;;;;;;16.65;14.85;;;;;;;20.03;86.19;101455.94;6069498;28;20237;-69
2023/06/29 05:22:38;;;;;;;17.02;14.73;;;;;;;19.88;85.95;101449.56;6069323;28;21722;-70
2023/06/29 05:25:59;;;;;;;16.73;14.43;;;;;;;20.12;85.88;101443.91;6074994;28;23107;-69
2023/06/29 05:29:19;;;;;;;17.77;15.33;;;;;;;19.87;85.74;101447.88;6070497;28;20763;-67
2023/06/29 05:32:40;;;;;;;24.80;16.67;;;;;;;19.62;86.16;101446.34;6053800;28;20769;-66
2023/06/29 05:36:02;;;;;;;21.80;16.17;;;;;;;19.88;86.49;101446.81;6060343;29;20256;-67
2023/06/29 05:39:24;;;;;;;15.73;12.88;;;;;;;20.02;86.72;101448.78;6075289;28;20240;-67
2023/06/29 05:42:45;;;;;;;15.85;14.20;;;;;;;20.09;85.98;101452.47;6074000;28;20236;-67
2023/06/29 05:46:06;;;;;;;19.35;14.55;;;;;;;20.04;85.72;101456.81;6072583;28;20244;-67
2023/06/29 05:49:27;;;;;;;13.65;12.20;;;;;;;20.16;85.49;101445.22;6048701;29;20240;-68
2023/06/29 05:52:48;;;;;;;16.10;13.30;;;;;;;20.26;84.52;101451.34;6064680;28;20235;-68
2023/06/29 05:56:11;;;;;;;14.60;12.75;;;;;;;20.13;84.67;101442.03;6072465;29;20249;-68
2023/06/29 05:59:32;;;;;;;14.40;12.68;;;;;;;20.58;84.46;101440.06;6051315;29;20240;-67
2023/06/29 06:02:53;;;;;;;15.65;14.02;;;;;;;20.21;84.42;101453.78;6076360;28;20247;-68
2023/06/29 06:06:15;;;;;;;41.05;12.38;;;;;;;20.41;84.41;101449.50;6072275;28;20236;-67
2023/06/29 06:09:36;;;;;;;14.20;12.93;;;;;;;20.15;84.58;101448.16;6052730;28;20244;-66
2023/06/29 06:12:58;;;;;;;15.80;12.25;;;;;;;20.30;84.76;101449.06;6069190;29;20240;-67
2023/06/29 06:16:19;;;;;;;17.45;13.07;;;;;;;20.37;84.33;101447.31;6079059;29;21025;-66
2023/06/29 06:19:40;;;;;;;13.57;12.18;;;;;;;20.32;84.38;101447.84;6069195;28;20228;-66
2023/06/29 06:23:01;;;;;;;16.55;12.02;;;;;;;20.33;84.34;101443.22;6064710;29;20599;-67
2023/06/29 06:26:22;;;;;;;15.38;12.20;;;;;;;20.48;84.37;101439.50;6073589;29;20231;-67
2023/06/29 06:29:44;;;;;;;14.75;11.43;;;;;;;20.32;83.89;101439.63;6074449;28;20232;-68
2023/06/29 06:33:05;;;;;;;15.82;11.88;;;;;;;20.16;84.20;101439.75;6074453;28;20232;-67
2023/06/29 06:36:29;;;;;;;13.57;11.98;;;;;;;20.42;83.64;101437.47;6069805;29;20515;-67
2023/06/29 06:39:50;;;;;;;15.70;13.32;;;;;;;20.42;83.53;101440.22;6067923;28;20240;-65
2023/06/29 06:43:11;;;;;;;11.10;9.48;;;;;;;21.03;82.69;101430.84;6075046;28;20234;-68
2023/06/29 06:46:33;;;;;;;14.25;9.93;;;;;;;21.41;80.81;101426.03;6071486;29;20605;-65
2023/06/29 06:49:54;;;;;;;15.20;12.20;;;;;;;20.82;81.19;101432.63;6070751;29;20606;-66
2023/06/29 06:53:15;;;;;;;15.25;12.45;;;;;;;20.87;81.15;101430.16;6081303;28;20244;-67
2023/06/29 06:56:37;;;;;;;22.25;10.75;;;;;;;21.41;80.70;101426.91;6067667;28;20638;-65
2023/06/29 06:59:58;;;;;;;15.00;12.05;;;;;;;21.47;79.71;101428.00;6091252;29;20285;-66
2023/06/29 07:03:20;;;;;;;15.00;11.18;;;;;;;21.90;79.13;101429.81;6076114;28;20239;-67
2023/06/29 07:06:41;;;;;;;15.93;13.27;;;;;;;21.70;78.17;101425.94;6079361;28;20236;-67
2023/06/29 07:10:02;;;;;;;17.42;12.05;;;;;;;21.29;78.99;101430.34;6080988;28;20568;-66
2023/06/29 07:13:24;;;;;;;15.25;11.98;;;;;;;22.04;78.12;101431.63;6091851;28;20264;-66
2023/06/29 07:16:44;;;;;;;15.13;11.48;;;;;;;21.36;78.55;101429.34;6067189;29;20341;-66
2023/06/29 07:20:08;;;;;;;13.07;11.52;;;;;;;21.77;78.32;101426.88;6088434;29;20298;-66
2023/06/29 07:23:29;;;;;;;21.98;12.57;;;;;;;21.78;77.60;101425.00;6093722;28;20236;-67
2023/06/29 07:26:50;;;;;;;21.10;13.13;;;;;;;21.52;78.46;101414.56;6076410;28;20264;-67
2023/06/29 07:30:12;;;;;;;13.00;10.45;;;;;;;22.12;78.07;101419.63;6085818;29;20240;-68
2023/06/29 07:33:33;;;;;;;15.95;11.73;;;;;;;21.86;76.70;101413.91;6092967;28;20773;-67
2023/06/29 07:36:55;;;;;;;18.15;12.15;;;;;;;21.59;78.15;101412.72;6081116;28;20243;-67
2023/06/29 07:40:16;;;;;;;15.45;12.00;;;;;;;21.49;78.04;101413.06;6089400;29;20252;-67
2023/06/29 07:43:37;;;;;;;13.73;10.38;;;;;;;22.39;77.19;101407.81;6074730;28;20582;-67
2023/06/29 07:46:59;;;;;;;9.77;7.93;;;;;;;22.69;75.91;101405.72;6079121;28;20688;-67
2023/06/29 07:50:20;;;;;;;15.50;10.57;;;;;;;23.26;74.05;101406.22;6083033;28;20626;-67
2023/06/29 07:53:42;;;;;;;9.60;7.50;;;;;;;23.63;72.61;101397.50;6081272;28;20233;-67
2023/06/29 07:57:04;;;;;;;20.23;12.68;;;;;;;22.79;72.91;101395.22;6082557;28;20259;-67
2023/06/29 08:00:25;;;;;;;15.57;13.00;;;;;;;21.98;74.21;101396.72;6093742;29;20262;-66
2023/06/29 08:03:49;;;;;;;17.48;13.68;;;;;;;22.21;75.60;101400.09;6087888;28;20232;-67
2023/06/29 08:07:11;;;;;;;15.40;12.02;;;;;;;22.67;74.77;101405.94;6064801;28;20244;-66
2023/06/29 08:10:33;;;;;;;18.30;12.55;;;;;;;22.60;74.91;101402.28;6079847;29;21854;-67
2023/06/29 08:13:54;;;;;;;22.92;12.80;;;;;;;22.30;74.94;101403.50;6072890;29;20244;-66
2023/06/29 08:17:15;;;;;;;14.50;13.00;;;;;;;21.95;76.13;101398.97;6070240;28;20263;-64
2023/06/29 08:20:36;;;;;;;17.60;13.02;;;;;;;22.27;76.30;101403.91;6078996;28;20233;-66
2023/06/29 08:23:56;;;;;;;27.17;14.85;;;;;;;22.42;75.86;101399.19;6071728;28;20240;-69
2023/06/29 08:27:19;;;;;;;13.45;11.82;;;;;;;22.45;75.23;101397.91;6066025;28;20236;-69
2023/06/29 08:30:40;;;;;;;17.98;13.07;;;;;;;22.58;75.34;101390.66;6089955;28;20233;-69
2023/06/29 08:34:01;;;;;;;18.70;12.55;;;;;;;23.22;75.02;101388.41;6080086;28;20599;-69
2023/06/29 08:37:21;;;;;;;17.67;12.35;;;;;;;23.47;73.86;101388.75;6081967;28;20241;-69
2023/06/29 08:40:46;;;;;;;16.25;13.15;;;;;;;23.35;73.27;101376.66;6083535;29;20722;-68
2023/06/29 08:44:09;;;;;;;15.40;12.30;;;;;;;23.72;71.70;101373.34;6086326;28;20229;-68
2023/06/29 08:47:33;;;;;;;11.80;10.40;;;;;;;23.70;72.43;101367.19;6079890;29;20305;-68
2023/06/29 08:51:00;;;;;;;15.57;12.15;;;;;;;23.49;72.30;101368.22;6094091;28;20642;-69
2023/06/29 08:54:21;;;;;;;14.95;11.32;;;;;;;23.27;72.78;101369.41;6094857;28;20233;-68
2023/06/29 08:57:42;;;;;;;16.52;12.65;;;;;;;23.14;72.66;101371.25;6084362;28;20235;-67
2023/06/29 09:01:05;;;;;;;15.82;12.52;;;;;;;24.03;71.56;101358.97;6086560;28;20236;-68
2023/06/29 09:04:26;;;;;;;15.52;13.18;;;;;;;23.66;71.06;101363.16;6092754;28;20279;-68
2023/06/29 09:07:47;;;;;;;15.65;11.50;;;;;;;24.44;69.42;101348.56;6077180;29;20316;-69
2023/06/29 09:11:07;;;;;;;15.75;13.65;;;;;;;23.28;70.68;101370.25;6084568;28;20236;-69
2023/06/29 09:14:28;;;;;;;21.25;12.27;;;;;;;23.36;71.50;101362.69;6063872;28;20240;-68
2023/06/29 09:17:54;;;;;;;18.15;11.95;;;;;;;24.31;70.13;101365.97;6070719;28;20240;-69
2023/06/29 09:21:16;;;;;;;16.15;12.40;;;;;;;23.82;69.91;101366.34;6086613;28;20248;-69
2023/06/29 09:24:39;;;;;;;17.63;13.18;;;;;;;23.86;69.33;101364.06;6076761;29;20331;-68
2023/06/29 09:28:04;;;;;;;23.67;13.50;;;;;;;24.66;69.01;101361.00;6083052;28;20625;-69
2023/06/29 09:31:26;;;;;;;14.80;11.55;;;;;;;24.63;67.87;101366.13;6087407;28;20237;-68
2023/06/29 09:34:50;;;;;;;16.08;12.60;;;;;;;24.77;67.82;101356.78;6086023;28;20229;-68
2023/06/29 09:38:10;;;;;;;16.67;12.60;;;;;;;24.63;67.08;101355.94;6085581;28;20506;-69
2023/06/29 09:41:31;;;;;;;15.82;12.77;;;;;;;24.72;67.40;101356.56;6087182;28;20232;-68
2023/06/29 09:44:53;;;;;;;17.50;13.98;;;;;;;24.72;66.22;101356.56;6086917;28;20240;-70
2023/06/29 09:48:14;;;;;;;23.70;13.45;;;;;;;23.65;68.37;101361.47;6078911;28;20239;-67
2023/06/29 09:51:38;;;;;;;15.57;13.75;;;;;;;23.84;68.04;101369.75;6073939;28;20236;-69
2023/06/29 09:54:59;;;;;;;17.48;14.20;;;;;;;23.84;68.66;101360.66;6076381;28;20236;-69
2023/06/29 09:58:20;;;;;;;20.75;14.43;;;;;;;24.60;67.31;101353.59;6083211;28;20774;-68
2023/06/29 10:01:41;;;;;;;18.38;12.60;;;;;;;24.28;68.24;101349.03;6063550;29;20241;-69
2023/06/29 10:05:02;;;;;;;17.17;14.60;;;;;;;24.22;67.77;101358.16;6090961;28;20228;-69
2023/06/29 10:08:27;;;;;;;16.38;13.45;;;;;;;24.05;68.06;101354.97;6078937;28;20612;-68
2023/06/29 10:11:51;;;;;;;17.08;13.35;;;;;;;24.49;67.93;101346.03;6062599;28;20233;-68
2023/06/29 10:15:14;;;;;;;20.23;14.60;;;;;;;24.65;66.79;101344.69;6092833;28;20236;-68
2023/06/29 10:18:40;;;;;;;20.40;13.48;;;;;;;23.87;68.75;101348.34;6063506;28;20233;-69
2023/06/29 10:22:06;;;;;;;14.63;12.23;;;;;;;24.06;68.33;101350.28;6075786;28;20274;-68
2023/06/29 10:25:32;;;;;;;19.48;14.27;;;;;;;24.55;67.88;101334.94;6093263;28;20289;-69
2023/06/29 10:28:53;;;;;;;14.52;11.90;;;;;;;24.72;67.46;101340.84;6084703;28;20244;-68
2023/06/29 10:32:31;;;;;;;13.73;11.82;;;;;;;24.51;67.48;101343.91;6074864;28;20251;-68
2023/06/29 10:35:54;;;;;;;16.30;12.88;;;;;;;23.97;68.53;101337.78;6091101;28;20232;-68
2023/06/29 10:39:41;;;;;;;15.02;12.07;;;;;;;23.54;70.12;101342.81;6089569;29;20324;-70
2023/06/29 10:43:08;;;;;;;16.75;11.75;;;;;;;23.49;71.00;101334.34;6092047;28;20617;-68
2023/06/29 10:46:47;;;;;;;17.77;13.15;;;;;;;23.22;71.04;101343.56;6086413;29;20236;-69
2023/06/29 10:50:18;;;;;;;19.98;13.77;;;;;;;23.17;71.39;101335.94;6087163;28;20614;-68
2023/06/29 10:53:40;;;;;;;21.25;12.85;;;;;;;22.90;71.27;101337.75;6087992;28;20236;-66
2023/06/29 10:57:02;;;;;;;14.43;12.18;;;;;;;22.97;71.33;101340.50;6085383;28;20566;-68
2023/06/29 11:00:25;;;;;;;20.27;12.52;;;;;;;22.99;71.81;101343.88;6093387;28;20236;-66
2023/06/29 11:03:47;;;;;;;18.67;11.90;;;;;;;22.87;71.53;101334.53;6092304;28;20248;-65
2023/06/29 11:07:08;;;;;;;18.52;12.48;;;;;;;22.84;72.00;101345.97;6083465;28;20351;-66
2023/06/29 11:10:29;;;;;;;24.40;14.45;;;;;;;22.95;72.18;101339.84;6085633;28;20670;-66
2023/06/29 11:13:50;;;;;;;24.00;11.10;;;;;;;23.13;71.50;101342.06;6080415;28;20713;-66
2023/06/29 11:17:13;;;;;;;20.73;12.15;;;;;;;22.71;72.39;101348.63;6081168;28;20240;-68
2023/06/29 11:20:37;;;;;;;14.05;10.10;;;;;;;22.57;72.80;101350.41;6089729;29;20249;-64
2023/06/29 11:23:58;;;;;;;16.63;11.32;;;;;;;23.15;71.72;101334.44;6074097;29;20260;-67
2023/06/29 11:27:19;;;;;;;17.83;11.15;;;;;;;23.11;71.80;101339.50;6082118;28;20243;-66
2023/06/29 11:30:40;;;;;;;19.48;11.27;;;;;;;22.89;71.83;101346.19;6090765;28;20276;-67
2023/06/29 11:34:02;;;;;;;14.02;11.07;;;;;;;23.18;71.41;101334.88;6085035;28;20248;-68
2023/06/29 11:37:23;;;;;;;18.98;12.45;;;;;;;23.09;71.29;101343.53;6078563;28;20244;-68
2023/06/29 11:40:44;;;;;;;15.90;11.45;;;;;;;23.22;70.68;101336.13;6082442;28;20232;-68
2023/06/29 11:44:06;;;;;;;17.45;11.23;;;;;;;23.25;70.54;101332.13;6094061;28;20237;-69
2023/06/29 11:47:27;;;;;;;16.40;12.57;;;;;;;22.88;71.92;101339.81;6075588;28;20499;-66
2023/06/29 11:50:49;;;;;;;12.82;11.52;;;;;;;22.75;72.87;101328.78;6092491;29;20255;-67
2023/06/29 11:54:10;;;;;;;14.00;9.65;;;;;;;23.24;72.41;101330.44;6090535;28;20232;-68
2023/06/29 11:57:31;;;;;;;18.27;11.82;;;;;;;22.80;72.83;101326.25;6076168;28;20364;-66
2023/06/29 12:00:56;;;;;;;16.08;10.48;;;;;;;22.61;73.69;101332.50;6087443;29;20240;-66
2023/06/29 12:04:17;;;;;;;19.17;12.88;;;;;;;23.01;73.69;101319.78;6077103;29;20233;-67
2023/06/29 12:07:41;;;;;;;13.75;10.75;;;;;;;22.72;73.87;101318.19;6071789;28;20236;-64
2023/06/29 12:11:04;;;;;;;15.20;11.05;;;;;;;22.40;74.29;101329.84;6086799;29;20232;-65
2023/06/29 12:14:28;;;;;;;16.23;10.75;;;;;;;22.88;73.24;101319.75;6089643;29;20233;-65
2023/06/29 12:17:50;;;;;;;19.13;10.70;;;;;;;22.45;74.17;101316.31;6072479;28;20243;-65
2023/06/29 12:21:11;;;;;;;12.75;11.07;;;;;;;22.24;75.38;101321.88;6085208;28;20229;-67
2023/06/29 12:24:33;;;;;;;13.55;12.10;;;;;;;22.10;76.13;101309.13;6066083;28;20236;-66
2023/06/29 12:27:54;;;;;;;12.35;10.52;;;;;;;22.27;76.09;101311.38;6078575;28;20579;-67
2023/06/29 12:31:15;;;;;;;15.02;11.35;;;;;;;22.13;77.15;101315.03;6086847;28;20244;-67
2023/06/29 12:34:38;;;;;;;15.23;11.98;;;;;;;22.09;78.18;101310.19;6068598;28;20253;-67
2023/06/29 12:37:59;;;;;;;14.57;11.38;;;;;;;21.97;78.61;101307.13;6076413;28;20245;-66
2023/06/29 12:41:21;;;;;;;15.38;11.27;;;;;;;22.24;78.67;101305.41;6087297;28;21191;-66
2023/06/29 12:44:42;;;;;;;13.77;11.18;;;;;;;21.68;79.62;101301.78;6079332;28;20323;-67
2023/06/29 12:48:04;;;;;;;12.63;10.63;;;;;;;21.96;79.56;101301.84;6080613;28;20639;-66
2023/06/29 12:51:25;;;;;;;17.00;11.07;;;;;;;22.08;79.41;101303.84;6086897;29;20303;-67
2023/06/29 12:54:46;;;;;;;12.57;10.25;;;;;;;22.44;79.00;101287.16;6083828;28;20236;-67
2023/06/29 12:58:08;;;;;;;14.93;13.07;;;;;;;22.91;76.88;101286.31;6083944;28;20662;-66
2023/06/29 13:01:30;;;;;;;15.23;11.50;;;;;;;22.76;76.82;101288.41;6078995;28;20518;-68
2023/06/29 13:04:52;;;;;;;14.27;11.88;;;;;;;22.81;76.43;101278.47;6083621;29;20233;-73
2023/06/29 13:08:14;;;;;;;12.27;10.60;;;;;;;22.77;75.57;101282.69;6070265;28;20264;-74
2023/06/29 13:11:35;;;;;;;17.33;10.00;;;;;;;23.36;75.21;101282.03;6088972;29;20229;-71
2023/06/29 13:14:58;;;;;;;11.52;10.40;;;;;;;22.72;75.51;101279.69;6081194;28;20240;-72
2023/06/29 13:18:19;;;;;;;14.50;10.52;;;;;;;22.66;76.28;101282.41;6082404;28;20240;-74
2023/06/29 13:21:40;;;;;;;10.50;9.30;;;;;;;22.75;76.61;101282.03;6082003;28;20247;-75
2023/06/29 13:25:01;;;;;;;20.05;11.10;;;;;;;22.59;76.11;101285.13;6093108;29;20621;-70
2023/06/29 13:28:22;;;;;;;12.95;10.63;;;;;;;22.76;76.60;101286.47;6085614;28;20243;-69
2023/06/29 13:31:45;;;;;;;20.45;11.25;;;;;;;22.69;76.84;101276.50;6076440;28;20232;-72
2023/06/29 13:35:06;;;;;;;13.95;10.20;;;;;;;22.69;77.03;101280.13;6096525;29;20260;-72
2023/06/29 13:38:27;;;;;;;10.07;9.05;;;;;;;22.67;76.99;101276.72;6071337;28;20236;-72
2023/06/29 13:41:49;;;;;;;12.23;10.93;;;;;;;22.92;76.97;101268.78;6067808;28;20240;-71
2023/06/29 13:45:10;;;;;;;13.30;10.00;;;;;;;22.58;76.67;101272.44;6085630;29;20530;-72
2023/06/29 13:48:33;;;;;;;18.58;11.80;;;;;;;22.61;77.42;101262.94;6077301;28;20302;-72
2023/06/29 13:51:54;;;;;;;11.98;10.75;;;;;;;23.08;76.35;101251.88;6078118;28;20244;-73
2023/06/29 13:55:15;;;;;;;14.43;11.02;;;;;;;23.10;75.71;101251.66;6087378;29;20774;-66
2023/06/29 13:58:36;;;;;;;12.70;10.55;;;;;;;23.13;75.56;101254.00;6075664;28;20587;-67
2023/06/29 14:01:57;;;;;;;18.70;11.02;;;;;;;23.09;74.83;101241.72;6074717;28;20232;-65
2023/06/29 14:05:20;;;;;;;14.30;10.43;;;;;;;23.42;74.28;101239.91;6086095;29;20307;-68
2023/06/29 14:08:41;;;;;;;21.50;12.43;;;;;;;23.39;73.42;101241.16;6055811;28;20425;-68
2023/06/29 14:12:02;;;;;;;14.98;12.02;;;;;;;23.54;73.27;101241.81;6060215;28;20235;-68
2023/06/29 14:15:23;;;;;;;12.82;10.25;;;;;;;24.11;72.26;101232.88;6086818;29;20226;-69
2023/06/29 14:18:44;;;;;;;14.75;11.98;;;;;;;24.24;71.64;101232.00;6066597;29;20241;-68
2023/06/29 14:22:08;;;;;;;12.82;10.98;;;;;;;23.82;72.09;101231.41;6067384;28;20244;-67
2023/06/29 14:25:29;;;;;;;14.15;10.60;;;;;;;24.05;71.64;101221.88;6084788;29;20240;-68
2023/06/29 14:28:50;;;;;;;14.93;12.10;;;;;;;24.48;70.30;101217.50;6077847;28;20239;-69
2023/06/29 14:32:13;;;;;;;13.07;11.00;;;;;;;23.72;70.66;101216.38;6066675;28;20708;-68
2023/06/29 14:35:34;;;;;;;11.15;9.52;;;;;;;24.29;69.97;101212.88;6088327;29;20229;-68
2023/06/29 14:38:56;;;;;;;12.55;9.32;;;;;;;24.49;70.21;101209.00;6085015;28;20264;-66
2023/06/29 14:42:18;;;;;;;14.65;11.73;;;;;;;23.71;70.99;101196.28;6080058;28;20251;-67
2023/06/29 14:45:38;;;;;;;17.67;10.32;;;;;;;23.71;71.74;101207.28;6092488;29;20496;-68
2023/06/29 14:48:59;;;;;;;14.57;10.32;;;;;;;23.66;71.67;101196.06;6079930;28;20232;-68
2023/06/29 14:52:23;;;;;;;12.73;10.30;;;;;;;23.70;72.32;101185.44;6080816;29;20236;-67
2023/06/29 14:55:45;;;;;;;18.88;12.48;;;;;;;23.68;71.83;101177.41;6096796;28;20240;-68
2023/06/29 14:59:06;;;;;;;12.20;10.82;;;;;;;23.59;72.11;101173.19;6077330;28;20232;-67
2023/06/29 15:02:27;;;;;;;14.38;10.90;;;;;;;23.73;72.16;101166.63;6050060;29;20235;-68
2023/06/29 15:05:48;;;;;;;17.02;12.13;;;;;;;23.74;72.16;101162.78;6077602;29;20228;-68
2023/06/29 15:09:09;;;;;;;14.02;10.77;;;;;;;23.97;71.67;101158.72;6085821;28;20319;-68
2023/06/29 15:12:31;;;;;;;12.90;9.80;;;;;;;24.28;70.58;101154.16;6071701;28;20240;-68
2023/06/29 15:15:52;;;;;;;12.30;10.90;;;;;;;24.10;70.79;101155.94;6085919;29;20514;-69
2023/06/29 15:19:13;;;;;;;12.80;11.43;;;;;;;24.17;70.91;101154.88;6085969;28;20244;-68
2023/06/29 15:22:34;;;;;;;12.65;10.02;;;;;;;24.18;70.98;101145.50;6080129;28;20236;-67